Time;durP1;ratioP1;P1;durP2;ratioP2;P2;SDS_P1;SDS_P2;PMS_P1;PMS_P2;Temp;Humidity;BMP_temperature;BMP_pressure;BME280_temperature;BME280_humidity;BME280_pressure;Samples;Min_cycle;Max_cycle;Signal;HPM_P1;HPM_P2
2022/12/14 00:00:00;;;;;;;27.98;20.42;;;-4.60;1.00;;;;;;5111162;27;20712;-79
2022/12/14 00:02:32;;;;;;;28.52;20.02;;;-4.60;1.00;;;;;;5121534;27;20261;-79
2022/12/14 00:05:01;;;;;;;29.35;18.30;;;-4.60;1.00;;;;;;5123441;27;20229;-83
2022/12/14 00:07:30;;;;;;;31.95;20.52;;;-4.60;1.00;;;;;;5125113;27;20224;-81
2022/12/14 00:10:01;;;;;;;33.97;20.95;;;-4.70;1.00;;;;;;5120215;27;20262;-81
2022/12/14 00:12:33;;;;;;;26.95;19.98;;;-4.70;1.00;;;;;;5121246;27;20238;-81
2022/12/14 00:15:00;;;;;;;26.95;19.73;;;-4.80;1.00;;;;;;5133581;27;21109;-78
2022/12/14 00:17:31;;;;;;;30.85;20.60;;;-4.80;1.00;;;;;;5126509;27;20223;-80
2022/12/14 00:19:58;;;;;;;29.40;20.30;;;-4.80;1.00;;;;;;5125053;27;20247;-80
2022/12/14 00:22:35;;;;;;;30.88;19.48;;;-4.90;1.00;;;;;;5123317;27;20227;-80
2022/12/14 00:25:11;;;;;;;31.02;20.35;;;-4.90;1.00;;;;;;5122934;27;21178;-86
2022/12/14 00:27:43;;;;;;;30.52;19.17;;;-4.90;1.00;;;;;;5119536;27;20246;-80
2022/12/14 00:30:11;;;;;;;28.50;18.35;;;-5.00;1.00;;;;;;5118476;27;20220;-80
2022/12/14 00:32:39;;;;;;;29.02;19.65;;;-5.00;1.00;;;;;;5119167;27;20243;-81
2022/12/14 00:35:12;;;;;;;30.92;20.45;;;-5.00;1.00;;;;;;5120082;27;20212;-82
2022/12/14 00:37:40;;;;;;;32.50;19.92;;;-5.00;1.00;;;;;;5118899;27;20290;-78
2022/12/14 00:40:17;;;;;;;29.83;19.70;;;-5.10;1.00;;;;;;5104913;27;20239;-79
2022/12/14 00:42:49;;;;;;;31.25;19.10;;;-5.10;1.00;;;;;;5119719;27;20240;-80
2022/12/14 00:45:16;;;;;;;35.28;20.17;;;-5.10;1.00;;;;;;5122913;27;20236;-83
2022/12/14 00:47:48;;;;;;;28.95;18.08;;;-5.10;1.00;;;;;;5119284;27;20246;-80
2022/12/14 00:50:16;;;;;;;29.45;20.10;;;-5.10;1.00;;;;;;5119787;27;20247;-79
2022/12/14 00:52:43;;;;;;;32.35;18.83;;;-5.10;1.00;;;;;;5118301;27;20242;-81
2022/12/14 00:55:15;;;;;;;33.85;19.73;;;-5.10;1.00;;;;;;5120574;27;20240;-79
2022/12/14 00:57:43;;;;;;;31.23;19.02;;;-5.20;1.00;;;;;;5113437;27;20287;-79
2022/12/14 01:00:12;;;;;;;33.05;20.08;;;-5.20;1.00;;;;;;5121290;27;20241;-80
2022/12/14 01:02:42;;;;;;;31.40;20.08;;;-5.20;1.00;;;;;;5105857;27;20307;-80
2022/12/14 01:05:09;;;;;;;33.65;20.98;;;-5.20;1.00;;;;;;5109148;27;20297;-80
2022/12/14 01:07:44;;;;;;;32.72;19.08;;;-5.20;1.00;;;;;;5095232;27;20213;-82
2022/12/14 01:10:13;;;;;;;32.92;20.63;;;-5.20;1.00;;;;;;5120295;27;20246;-81
2022/12/14 01:12:41;;;;;;;31.95;18.90;;;-5.20;1.00;;;;;;5122324;27;20224;-80
2022/12/14 01:15:09;;;;;;;30.35;19.63;;;-5.20;1.00;;;;;;5121829;27;20295;-79
2022/12/14 01:17:40;;;;;;;32.85;18.73;;;-5.30;1.00;;;;;;5123840;27;20257;-79
2022/12/14 01:20:10;;;;;;;34.30;19.55;;;-5.20;1.00;;;;;;5120193;27;20243;-81
2022/12/14 01:22:40;;;;;;;27.35;18.63;;;-5.20;1.00;;;;;;5113924;27;20231;-81
2022/12/14 01:25:08;;;;;;;32.78;18.52;;;-5.20;1.00;;;;;;5119253;27;20239;-81
2022/12/14 01:27:37;;;;;;;31.80;19.75;;;-5.20;1.00;;;;;;5076341;27;20240;-80
2022/12/14 01:30:09;;;;;;;30.60;20.05;;;-5.20;1.00;;;;;;5105587;27;20296;-83
2022/12/14 01:32:41;;;;;;;29.25;18.20;;;-5.30;1.00;;;;;;5076177;27;20654;-81
2022/12/14 01:35:12;;;;;;;30.55;18.33;;;-5.30;1.00;;;;;;5090489;27;20220;-80
2022/12/14 01:37:42;;;;;;;33.13;19.10;;;-5.20;1.00;;;;;;5079377;27;20292;-81
2022/12/14 01:40:12;;;;;;;28.80;18.90;;;-5.30;1.00;;;;;;5083706;27;20263;-81
2022/12/14 01:42:53;;;;;;;35.80;20.17;;;-5.30;1.00;;;;;;5077768;27;20242;-80
2022/12/14 01:45:23;;;;;;;30.00;18.63;;;-5.30;1.00;;;;;;5088698;27;20239;-80
2022/12/14 01:48:02;;;;;;;30.83;20.00;;;-5.30;1.00;;;;;;5083811;27;20228;-81
2022/12/14 01:50:40;;;;;;;27.00;18.17;;;-5.30;1.00;;;;;;5076867;27;21161;-80
2022/12/14 01:53:22;;;;;;;30.17;19.05;;;-5.40;1.00;;;;;;5113721;27;20262;-81
2022/12/14 01:56:00;;;;;;;30.35;18.60;;;-5.40;1.00;;;;;;5119284;27;20236;-84
2022/12/14 01:58:28;;;;;;;27.58;18.85;;;-5.40;1.00;;;;;;5108216;27;20248;-80
2022/12/14 02:01:02;;;;;;;34.72;19.23;;;-5.40;1.00;;;;;;5119125;27;20232;-80
2022/12/14 02:03:33;;;;;;;33.13;20.55;;;-5.40;1.00;;;;;;5090196;27;20254;-78
2022/12/14 02:06:04;;;;;;;32.17;20.15;;;-5.50;1.00;;;;;;5100019;27;20292;-80
2022/12/14 02:08:32;;;;;;;31.58;19.88;;;-5.50;1.00;;;;;;5094380;27;20240;-82
2022/12/14 02:11:04;;;;;;;28.30;18.52;;;-5.50;1.00;;;;;;5085543;27;20267;-84
2022/12/14 02:13:48;;;;;;;32.72;19.52;;;-5.50;1.00;;;;;;5074460;28;20326;-82
2022/12/14 02:16:15;;;;;;;28.23;19.77;;;-5.60;1.00;;;;;;5105630;27;20239;-81
2022/12/14 02:18:42;;;;;;;33.65;19.10;;;-5.60;1.00;;;;;;5121869;27;20251;-80
2022/12/14 02:21:23;;;;;;;34.90;21.35;;;-5.60;1.00;;;;;;5129437;27;20263;-79
2022/12/14 02:24:22;;;;;;;30.25;18.58;;;-5.60;1.00;;;;;;5125102;28;20221;-80
2022/12/14 02:27:31;;;;;;;31.40;18.33;;;-5.60;1.00;;;;;;5123933;27;20223;-80
2022/12/14 02:30:05;;;;;;;29.30;19.27;;;-5.60;1.00;;;;;;5040970;28;20238;-81
2022/12/14 02:33:19;;;;;;;29.50;18.02;;;-5.60;1.00;;;;;;5043424;28;20907;-82
2022/12/14 02:35:55;;;;;;;29.58;17.55;;;-5.60;1.00;;;;;;5040725;28;20317;-81
2022/12/14 02:38:38;;;;;;;28.17;17.08;;;-5.60;1.00;;;;;;5089985;27;20385;-80
2022/12/14 02:41:15;;;;;;;28.33;18.42;;;-5.70;1.00;;;;;;5119204;27;21130;-82
2022/12/14 02:43:53;;;;;;;29.83;19.98;;;-5.70;1.00;;;;;;5117489;27;20250;-79
2022/12/14 02:46:31;;;;;;;32.03;18.70;;;-5.70;1.00;;;;;;5110628;27;20216;-80
2022/12/14 02:49:06;;;;;;;32.60;19.77;;;-5.80;1.00;;;;;;5111329;27;20208;-79
2022/12/14 02:51:48;;;;;;;28.17;18.38;;;-5.80;1.00;;;;;;5119135;27;20235;-81
2022/12/14 02:54:28;;;;;;;29.33;18.27;;;-5.80;1.00;;;;;;5106518;27;20240;-77
2022/12/14 02:57:09;;;;;;;34.80;20.00;;;-5.80;1.00;;;;;;5098664;27;20236;-81
2022/12/14 02:59:44;;;;;;;32.70;18.95;;;-5.90;1.00;;;;;;5093906;27;20259;-80
2022/12/14 03:02:19;;;;;;;29.85;18.77;;;-5.90;1.00;;;;;;5104445;27;20277;-80
2022/12/14 03:04:47;;;;;;;28.50;18.15;;;-5.90;1.00;;;;;;5110990;27;21030;-79
2022/12/14 03:07:32;;;;;;;33.00;19.38;;;-5.90;1.00;;;;;;5122587;27;20269;-78
2022/12/14 03:10:09;;;;;;;32.10;18.83;;;-6.00;1.00;;;;;;5107499;27;20328;-80
2022/12/14 03:12:42;;;;;;;31.70;18.75;;;-6.00;1.00;;;;;;5113283;27;20239;-81
2022/12/14 03:15:21;;;;;;;32.67;19.50;;;-6.00;1.00;;;;;;5127809;27;20255;-79
2022/12/14 03:17:59;;;;;;;33.33;18.80;;;-6.00;1.00;;;;;;5120644;27;20235;-80
2022/12/14 03:20:32;;;;;;;33.00;19.35;;;-6.00;1.00;;;;;;5099257;28;20236;-82
2022/12/14 03:23:06;;;;;;;27.92;17.92;;;-6.10;1.00;;;;;;5104203;27;20212;-77
2022/12/14 03:25:46;;;;;;;29.75;18.65;;;-6.10;1.00;;;;;;5119485;27;20278;-79
2022/12/14 03:28:20;;;;;;;31.80;19.55;;;-6.10;1.00;;;;;;5106613;27;20370;-80
2022/12/14 03:30:52;;;;;;;34.55;20.77;;;-6.10;1.00;;;;;;5109245;27;20263;-82
2022/12/14 03:33:27;;;;;;;31.52;19.30;;;-6.10;1.00;;;;;;5122409;27;20220;-79
2022/12/14 03:36:04;;;;;;;36.05;20.70;;;-6.10;1.00;;;;;;5113543;27;21041;-80
2022/12/14 03:38:40;;;;;;;28.50;18.67;;;-6.10;1.00;;;;;;5095537;28;20240;-81
2022/12/14 03:41:23;;;;;;;28.40;18.00;;;-6.10;1.00;;;;;;5079992;28;20335;-80
2022/12/14 03:44:08;;;;;;;27.95;17.92;;;-6.10;1.00;;;;;;5100266;28;20324;-78
2022/12/14 03:46:45;;;;;;;25.70;17.27;;;-6.10;1.00;;;;;;5100384;28;20232;-78
2022/12/14 03:49:26;;;;;;;32.45;18.45;;;-6.10;1.00;;;;;;5096336;28;20274;-81
2022/12/14 03:52:03;;;;;;;31.58;20.33;;;-6.20;1.00;;;;;;5085593;28;20239;-78
2022/12/14 03:54:44;;;;;;;27.67;18.58;;;-6.20;1.00;;;;;;5092174;28;20265;-81
2022/12/14 03:57:20;;;;;;;30.77;17.50;;;-6.20;1.00;;;;;;5100728;28;20233;-81
2022/12/14 04:00:02;;;;;;;27.17;19.85;;;-6.20;1.00;;;;;;5090015;28;20236;-79
2022/12/14 04:02:41;;;;;;;34.33;19.90;;;-6.20;1.00;;;;;;5078293;28;20236;-81
2022/12/14 04:05:16;;;;;;;28.33;18.30;;;-6.30;1.00;;;;;;5103508;28;20221;-81
2022/12/14 04:07:52;;;;;;;33.38;19.25;;;-6.30;1.00;;;;;;5103938;28;20261;-79
2022/12/14 04:18:59;;;;;;;31.40;20.33;;;-6.30;1.00;;;;;;5055854;28;20240;-80
2022/12/14 04:21:39;;;;;;;29.92;19.48;;;-6.30;1.00;;;;;;5103348;28;20233;-78
2022/12/14 04:27:10;;;;;;;32.72;18.38;;;-6.30;1.00;;;;;;5102031;28;20329;-79
2022/12/14 04:29:58;;;;;;;31.10;20.50;;;-6.30;1.00;;;;;;5098965;28;20239;-79
2022/12/14 04:32:30;;;;;;;30.95;19.17;;;-6.30;1.00;;;;;;5098687;28;20334;-80
2022/12/14 04:35:04;;;;;;;30.30;19.90;;;-6.30;1.00;;;;;;5100796;28;20236;-80
2022/12/14 04:37:39;;;;;;;28.30;18.73;;;-6.30;1.00;;;;;;5093009;28;20235;-79
2022/12/14 04:40:12;;;;;;;31.40;19.58;;;-6.20;1.00;;;;;;5094937;28;21114;-80
2022/12/14 04:42:47;;;;;;;37.38;21.00;;;-6.20;1.00;;;;;;5098642;28;20244;-80
2022/12/14 04:45:19;;;;;;;34.13;21.77;;;-6.20;1.00;;;;;;5088213;28;20265;-81
2022/12/14 04:47:57;;;;;;;31.80;18.50;;;-6.20;1.00;;;;;;5089193;28;20361;-80
2022/12/14 04:50:28;;;;;;;31.95;19.45;;;-6.20;1.00;;;;;;5067713;28;20239;-80
2022/12/14 04:53:12;;;;;;;26.00;18.58;;;-6.20;1.00;;;;;;5088039;28;20264;-80
2022/12/14 04:55:43;;;;;;;27.23;19.17;;;-6.30;1.00;;;;;;5099544;28;20232;-81
2022/12/14 04:58:19;;;;;;;31.60;18.85;;;-6.30;1.00;;;;;;5098984;28;20321;-80
2022/12/14 05:01:16;;;;;;;30.55;19.52;;;-6.30;1.00;;;;;;5092114;28;20240;-80
2022/12/14 05:03:54;;;;;;;25.30;17.83;;;-6.30;1.00;;;;;;5093964;28;20354;-81
2022/12/14 05:06:30;;;;;;;33.95;20.38;;;-6.30;1.00;;;;;;5091942;28;21015;-81
2022/12/14 05:09:09;;;;;;;34.33;19.15;;;-6.30;1.00;;;;;;5098879;28;20856;-82
2022/12/14 05:11:46;;;;;;;29.25;17.85;;;-6.30;1.00;;;;;;5092520;28;20236;-82
2022/12/14 05:14:21;;;;;;;29.65;18.25;;;-6.30;1.00;;;;;;5098414;28;20258;-81
2022/12/14 05:19:34;;;;;;;30.30;19.83;;;-6.30;1.00;;;;;;5042825;28;21743;-80
2022/12/14 05:22:12;;;;;;;28.65;18.50;;;-6.30;1.00;;;;;;5068105;28;20402;-80
2022/12/14 05:24:43;;;;;;;29.23;17.90;;;-6.30;1.00;;;;;;5079011;28;20235;-80
2022/12/14 05:27:12;;;;;;;31.55;18.98;;;-6.40;1.00;;;;;;5105431;28;20244;-80
2022/12/14 05:29:39;;;;;;;30.70;17.33;;;-6.40;1.00;;;;;;5098116;28;20364;-81
2022/12/14 05:32:12;;;;;;;29.25;17.45;;;-6.30;1.00;;;;;;5101976;28;20258;-83
2022/12/14 05:34:44;;;;;;;27.40;17.42;;;-6.30;1.00;;;;;;5088289;28;20318;-80
2022/12/14 05:39:55;;;;;;;25.42;18.42;;;-6.40;1.00;;;;;;5097751;28;20937;-82
2022/12/14 05:42:22;;;;;;;33.00;18.15;;;-6.40;1.00;;;;;;5101398;28;20232;-81
2022/12/14 05:44:52;;;;;;;26.00;17.25;;;-6.50;1.00;;;;;;5108620;28;20247;-83
2022/12/14 05:47:20;;;;;;;27.52;17.38;;;-6.50;1.00;;;;;;5082778;28;20241;-79
2022/12/14 05:50:20;;;;;;;28.80;17.55;;;-6.50;1.00;;;;;;5108004;28;20322;-83
2022/12/14 05:53:00;;;;;;;29.08;16.55;;;-6.60;1.00;;;;;;5071712;28;20232;-78
2022/12/14 05:55:41;;;;;;;28.13;17.17;;;-6.60;1.00;;;;;;5082899;28;20224;-80
2022/12/14 05:58:16;;;;;;;27.92;17.40;;;-6.60;1.00;;;;;;5078609;28;20241;-79
2022/12/14 06:00:44;;;;;;;27.05;17.65;;;-6.60;1.00;;;;;;5099077;28;20208;-82
2022/12/14 06:03:13;;;;;;;28.27;16.90;;;-6.60;1.00;;;;;;5106710;28;20320;-82
2022/12/14 06:05:42;;;;;;;26.08;15.18;;;-6.60;1.00;;;;;;5109330;28;20240;-83
2022/12/14 06:08:14;;;;;;;28.45;17.45;;;-6.50;1.00;;;;;;5087012;28;21167;-81
2022/12/14 06:10:42;;;;;;;57.28;35.40;;;-6.50;1.00;;;;;;5075079;28;20247;-82
2022/12/14 06:13:13;;;;;;;28.20;18.25;;;-6.60;1.00;;;;;;5092411;28;20266;-78
2022/12/14 06:18:32;;;;;;;28.27;17.23;;;-6.60;1.00;;;;;;5106988;28;20238;-82
2022/12/14 06:21:02;;;;;;;27.27;17.70;;;-6.60;1.00;;;;;;5079038;28;20303;-78
2022/12/14 06:23:46;;;;;;;27.23;18.40;;;-6.60;1.00;;;;;;5101286;28;20236;-78
2022/12/14 06:26:22;;;;;;;27.13;16.58;;;-6.60;1.00;;;;;;5088335;28;20267;-83
2022/12/14 06:28:52;;;;;;;27.98;17.50;;;-6.60;1.00;;;;;;5092043;28;20247;-84
2022/12/14 06:31:28;;;;;;;37.08;19.67;;;-6.60;1.00;;;;;;5094573;28;20216;-81
2022/12/14 06:34:11;;;;;;;30.85;18.38;;;-6.60;1.00;;;;;;5085628;28;20276;-84
2022/12/14 06:36:45;;;;;;;30.13;18.02;;;-6.60;1.00;;;;;;5107258;27;20283;-78
2022/12/14 06:44:44;;;;;;;22.85;15.95;;;-6.60;1.00;;;;;;5082969;28;20314;-80
2022/12/14 06:47:27;;;;;;;29.60;17.35;;;-6.50;1.00;;;;;;5093209;28;20224;-82
2022/12/14 06:49:54;;;;;;;26.02;16.83;;;-6.60;1.00;;;;;;5102243;27;20240;-77
2022/12/14 06:52:26;;;;;;;28.08;16.88;;;-6.60;1.00;;;;;;5106060;28;20208;-80
2022/12/14 06:54:53;;;;;;;30.90;18.40;;;-6.60;1.00;;;;;;5091609;28;20236;-78
2022/12/14 06:57:26;;;;;;;33.35;18.77;;;-6.60;1.00;;;;;;5093554;28;20235;-78
2022/12/14 07:02:45;;;;;;;28.42;17.60;;;-6.60;1.00;;;;;;5088027;28;20296;-87
2022/12/14 07:05:24;;;;;;;28.55;17.80;;;-6.60;1.00;;;;;;5085102;28;20245;-79
2022/12/14 07:07:54;;;;;;;26.45;17.20;;;-6.60;1.00;;;;;;5090761;28;20237;-81
2022/12/14 07:10:49;;;;;;;25.67;15.50;;;-6.60;1.00;;;;;;5090973;28;20290;-79
2022/12/14 07:13:27;;;;;;;28.05;16.63;;;-6.60;1.00;;;;;;5084231;27;20209;-79
2022/12/14 07:16:01;;;;;;;27.90;16.85;;;-6.60;1.00;;;;;;5078548;22;20258;-92
2022/12/14 07:18:41;;;;;;;27.65;17.45;;;-6.70;1.00;;;;;;5078416;28;20236;-92
2022/12/14 07:21:21;;;;;;;25.23;17.45;;;-6.70;1.00;;;;;;5067122;28;20217;-89
2022/12/14 07:26:35;;;;;;;29.27;17.38;;;-6.70;1.00;;;;;;5077255;27;20247;-89
2022/12/14 07:29:05;;;;;;;28.05;18.52;;;-6.80;1.00;;;;;;4301677;22;20447;-85
2022/12/14 07:31:33;;;;;;;29.77;16.20;;;-6.80;1.00;;;;;;5040992;28;20241;-80
2022/12/14 07:34:03;;;;;;;30.25;17.80;;;-6.80;1.00;;;;;;5051805;28;20240;-80
2022/12/14 07:36:31;;;;;;;26.23;17.20;;;-6.80;1.00;;;;;;5008419;28;20237;-79
2022/12/14 07:39:02;;;;;;;29.02;17.75;;;-6.70;1.00;;;;;;5059646;28;20257;-82
2022/12/14 07:41:31;;;;;;;24.92;17.75;;;-6.70;1.00;;;;;;5051960;28;20236;-81
2022/12/14 07:44:04;;;;;;;30.98;20.25;;;-6.70;1.00;;;;;;5054150;28;20241;-82
2022/12/14 07:46:32;;;;;;;27.00;16.65;;;-6.60;1.00;;;;;;5062845;28;20709;-80
2022/12/14 07:49:01;;;;;;;28.80;17.35;;;-6.60;1.00;;;;;;5063932;28;20240;-79
2022/12/14 07:51:33;;;;;;;27.67;16.60;;;-6.60;1.00;;;;;;5051179;28;20240;-81
2022/12/14 07:54:04;;;;;;;27.63;16.75;;;-6.50;1.00;;;;;;5059150;28;20233;-81
2022/12/14 07:59:15;;;;;;;27.67;17.17;;;-6.40;1.00;;;;;;5063454;28;20275;-83
2022/12/14 08:02:04;;;;;;;28.63;18.02;;;-6.40;1.00;;;;;;5049063;28;20245;-86
2022/12/14 08:04:35;;;;;;;27.65;16.63;;;-6.20;1.00;;;;;;5024916;28;20229;-80
2022/12/14 08:07:18;;;;;;;;;;;;;;;;;;;;;
2022/12/14 08:09:54;;;;;;;30.30;17.92;;;-6.20;1.00;;;;;;5048960;28;47220;-82
2022/12/14 08:12:25;;;;;;;29.38;19.33;;;-6.20;1.00;;;;;;5054272;28;20228;-80
2022/12/14 08:14:53;;;;;;;29.42;19.75;;;-6.10;1.00;;;;;;5053850;28;20277;-79
2022/12/14 08:17:25;;;;;;;25.10;16.52;;;-5.80;1.00;;;;;;5046017;28;20247;-81
2022/12/14 08:19:55;;;;;;;31.13;18.63;;;-5.40;1.00;;;;;;5062224;28;20259;-81
2022/12/14 08:22:23;;;;;;;31.33;18.80;;;-5.40;1.00;;;;;;5047500;28;20234;-80
2022/12/14 08:27:52;;;;;;;;;;;;;;;;;;;;;
2022/12/14 08:30:31;;;;;;;31.42;20.20;;;-5.50;1.00;;;;;;4997086;28;41720;-83
2022/12/14 08:33:33;;;;;;;27.55;18.40;;;-5.50;1.00;;;;;;4998314;28;20294;-85
2022/12/14 08:36:13;;;;;;;27.80;18.40;;;-5.10;1.00;;;;;;4998096;28;20232;-80
2022/12/14 08:38:44;;;;;;;31.45;19.73;;;-4.80;1.00;;;;;;4989097;28;20241;-88
2022/12/14 08:41:24;;;;;;;35.35;19.42;;;-4.70;1.00;;;;;;5013104;28;20238;-80
2022/12/14 08:44:11;;;;;;;30.95;20.13;;;-4.70;1.00;;;;;;5032300;28;20245;-80
2022/12/14 08:46:51;;;;;;;27.60;18.25;;;-4.90;1.00;;;;;;5004086;28;20237;-81
2022/12/14 08:49:31;;;;;;;25.02;16.45;;;-4.90;1.00;;;;;;5038561;28;20238;-81
2022/12/14 08:52:21;;;;;;;29.88;19.45;;;-4.90;1.00;;;;;;5050059;28;20269;-80
2022/12/14 08:54:48;;;;;;;28.13;17.52;;;-4.80;1.00;;;;;;5026540;28;20254;-83
2022/12/14 09:03:12;;;;;;;27.75;16.70;;;-4.80;1.00;;;;;;5052676;28;20242;-84
2022/12/14 09:05:44;;;;;;;26.70;17.98;;;-4.80;1.00;;;;;;5041823;28;20230;-82
2022/12/14 09:08:13;;;;;;;30.35;17.95;;;-4.80;1.00;;;;;;5023290;28;20279;-87
2022/12/14 09:10:49;;;;;;;26.80;18.60;;;-4.80;1.00;;;;;;5044900;28;20221;-82
2022/12/14 09:13:23;;;;;;;29.10;19.30;;;-4.80;1.00;;;;;;5036885;28;20249;-84
2022/12/14 09:16:04;;;;;;;29.92;19.02;;;-4.80;1.00;;;;;;5031308;28;20303;-89
2022/12/14 09:18:44;;;;;;;30.50;18.17;;;-4.80;1.00;;;;;;5024470;28;20228;-85
2022/12/14 09:21:13;;;;;;;30.63;16.63;;;-4.70;1.00;;;;;;5026741;28;20239;-84
2022/12/14 09:23:43;;;;;;;26.98;17.58;;;-4.50;1.00;;;;;;5038105;28;20245;-83
2022/12/14 09:26:20;;;;;;;39.90;24.40;;;-4.40;1.00;;;;;;5054518;28;20238;-79
2022/12/14 09:29:05;;;;;;;27.42;17.10;;;-4.30;1.00;;;;;;5054406;28;20295;-84
2022/12/14 09:31:52;;;;;;;28.15;18.33;;;-4.20;1.00;;;;;;5029175;28;20236;-83
2022/12/14 09:34:24;;;;;;;26.67;18.17;;;-4.10;1.00;;;;;;5021192;28;20275;-85
2022/12/14 09:37:03;;;;;;;27.75;17.48;;;-4.00;1.00;;;;;;5040091;28;20281;-87
2022/12/14 09:39:32;;;;;;;27.17;18.80;;;-4.00;1.00;;;;;;5061275;28;20277;-80
2022/12/14 09:42:22;;;;;;;28.95;17.75;;;-3.90;1.00;;;;;;5043404;28;20291;-80
2022/12/14 09:45:03;;;;;;;27.55;18.02;;;-3.70;1.00;;;;;;5028395;28;20249;-83
2022/12/14 09:47:42;;;;;;;26.20;19.27;;;-3.60;1.00;;;;;;5044083;28;20449;-81
2022/12/14 09:50:15;;;;;;;31.23;19.27;;;-3.60;1.00;;;;;;5058283;28;20234;-87
2022/12/14 09:52:50;;;;;;;30.23;20.05;;;-3.20;1.00;;;;;;5047282;28;20239;-85
2022/12/14 09:55:26;;;;;;;28.13;18.17;;;-2.80;1.00;;;;;;5042477;28;20233;-86
2022/12/14 09:58:03;;;;;;;28.63;17.38;;;-2.60;1.00;;;;;;5056477;28;20297;-87
2022/12/14 10:00:43;;;;;;;30.42;19.85;;;-2.40;1.00;;;;;;5026121;28;20226;-86
2022/12/14 10:03:57;;;;;;;28.88;18.50;;;-2.30;1.00;;;;;;5023195;28;20273;-82
2022/12/14 10:06:43;;;;;;;30.08;17.50;;;-2.30;1.00;;;;;;5024345;28;21144;-85
2022/12/14 10:09:34;;;;;;;30.38;20.50;;;-2.30;1.00;;;;;;5027733;28;20249;-84
2022/12/14 10:12:14;;;;;;;26.58;17.48;;;-2.40;1.00;;;;;;5030234;28;20258;-84
2022/12/14 10:15:01;;;;;;;35.00;18.38;;;-2.30;1.00;;;;;;5011265;28;20273;-81
2022/12/14 10:17:59;;;;;;;25.00;17.63;;;-1.80;1.00;;;;;;5043044;28;20258;-80
2022/12/14 10:20:46;;;;;;;45.55;29.50;;;-1.50;1.00;;;;;;5053800;28;20340;-79
2022/12/14 10:23:34;;;;;;;28.33;18.23;;;-1.50;1.00;;;;;;5047674;28;20243;-83
2022/12/14 10:26:16;;;;;;;;;;;;;;;;;;;;;
2022/12/14 10:28:52;;;;;;;28.08;18.58;;;-1.40;1.00;;;;;;4999162;28;41007;-83
2022/12/14 10:31:43;;;;;;;29.75;18.08;;;-1.10;1.00;;;;;;5040570;28;20237;-85
2022/12/14 10:34:42;;;;;;;26.30;18.13;;;-0.60;1.00;;;;;;5036588;28;20332;-81
2022/12/14 10:37:35;;;;;;;26.15;19.20;;;-0.60;1.00;;;;;;5028344;28;20229;-82
2022/12/14 10:40:23;;;;;;;25.48;16.65;;;-0.60;1.00;;;;;;5011444;28;20294;-81
2022/12/14 10:43:12;;;;;;;24.05;16.95;;;-0.70;1.00;;;;;;5047820;28;20289;-85
2022/12/14 10:46:01;;;;;;;26.13;16.38;;;-0.50;1.00;;;;;;5061031;28;20239;-86
2022/12/14 10:48:53;;;;;;;26.63;16.30;;;-0.60;1.00;;;;;;5039154;28;20320;-82
2022/12/14 10:51:34;;;;;;;26.83;17.63;;;-0.60;1.00;;;;;;5029146;28;20318;-82
2022/12/14 10:54:11;;;;;;;32.00;21.23;;;-0.40;1.00;;;;;;5035890;28;20250;-80
2022/12/14 10:56:43;;;;;;;29.00;19.00;;;-0.40;1.00;;;;;;5023173;28;20292;-82
2022/12/14 10:59:34;;;;;;;22.08;15.25;;;-0.40;1.00;;;;;;5047541;28;20228;-82
2022/12/14 11:02:07;;;;;;;23.73;16.95;;;-0.30;1.00;;;;;;5045682;28;20233;-81
2022/12/14 11:04:43;;;;;;;25.02;16.83;;;-0.30;1.00;;;;;;5022274;28;20230;-80
2022/12/14 11:07:36;;;;;;;;;;;;;;;;;;;;;
2022/12/14 11:10:18;;;;;;;30.33;19.15;;;-0.30;1.00;;;;;;5033484;28;50814;-78
2022/12/14 11:12:59;;;;;;;29.35;20.00;;;-0.30;1.00;;;;;;5057213;28;20311;-79
2022/12/14 11:15:34;;;;;;;32.25;22.60;;;-0.20;1.00;;;;;;5053988;28;20310;-77
2022/12/14 11:18:05;;;;;;;26.45;17.25;;;-0.30;1.00;;;;;;5059480;28;20236;-80
2022/12/14 11:20:33;;;;;;;32.38;18.15;;;0.00;1.00;;;;;;5055956;28;20241;-87
2022/12/14 11:23:36;;;;;;;;;;;;;;;;;;;;;
2022/12/14 11:26:11;;;;;;;24.77;16.75;;;1.00;1.00;;;;;;5034610;28;50716;-84
2022/12/14 11:28:48;;;;;;;21.08;15.45;;;1.70;1.00;;;;;;5018172;28;20282;-78
2022/12/14 11:31:26;;;;;;;23.48;15.75;;;1.90;1.00;;;;;;5027307;28;20239;-81
2022/12/14 11:33:56;;;;;;;23.42;15.65;;;2.20;1.00;;;;;;5037378;28;20388;-78
2022/12/14 11:36:27;;;;;;;23.35;17.20;;;2.00;1.00;;;;;;5048571;28;20303;-78
2022/12/14 11:38:56;;;;;;;20.33;15.05;;;1.80;1.00;;;;;;5030114;28;20332;-81
2022/12/14 11:41:24;;;;;;;26.27;16.80;;;1.80;1.00;;;;;;5025649;28;21931;-80
2022/12/14 11:44:03;;;;;;;23.83;15.52;;;2.00;1.00;;;;;;5051572;28;20236;-80
2022/12/14 11:46:45;;;;;;;24.40;17.83;;;2.00;1.00;;;;;;5058830;28;20244;-82
2022/12/14 11:49:24;;;;;;;23.23;15.38;;;1.80;1.00;;;;;;5059967;28;20240;-80
2022/12/14 11:51:59;;;;;;;21.35;14.65;;;1.40;1.00;;;;;;5064232;28;20302;-78
2022/12/14 11:54:34;;;;;;;21.13;14.02;;;1.10;1.00;;;;;;5062496;28;20272;-84
2022/12/14 11:57:23;;;;;;;23.00;15.45;;;0.90;1.00;;;;;;5067421;28;20247;-85
2022/12/14 11:59:54;;;;;;;24.95;17.73;;;0.50;1.00;;;;;;5062259;28;20252;-79
2022/12/14 12:02:32;;;;;;;22.67;15.88;;;0.50;1.00;;;;;;5049850;28;20244;-79
2022/12/14 12:05:06;;;;;;;23.80;15.25;;;0.80;1.00;;;;;;5057688;28;20744;-79
2022/12/14 12:07:38;;;;;;;25.38;16.45;;;1.00;1.00;;;;;;5059198;28;20242;-78
2022/12/14 12:10:20;;;;;;;22.30;15.15;;;0.90;1.00;;;;;;5066107;28;20232;-80
2022/12/14 12:12:58;;;;;;;24.38;15.48;;;0.90;1.00;;;;;;5065184;28;20248;-83
2022/12/14 12:15:39;;;;;;;25.50;16.83;;;1.40;1.00;;;;;;5061274;28;20304;-83
2022/12/14 12:18:21;;;;;;;21.40;14.75;;;2.40;1.00;;;;;;5066684;28;20248;-81
2022/12/14 12:21:26;;;;;;;21.92;15.15;;;2.70;1.00;;;;;;5061822;28;20234;-85
2022/12/14 12:24:09;;;;;;;30.05;14.75;;;2.30;1.00;;;;;;5045929;28;20242;-81
2022/12/14 12:26:49;;;;;;;21.25;15.63;;;2.00;1.00;;;;;;5065631;28;20224;-81
2022/12/14 12:29:28;;;;;;;22.55;14.13;;;1.80;1.00;;;;;;5039730;28;20252;-83
2022/12/14 12:32:08;;;;;;;22.45;15.32;;;1.60;1.00;;;;;;5043152;28;20295;-81
2022/12/14 12:35:09;;;;;;;21.20;13.85;;;1.70;1.00;;;;;;5040400;28;20321;-81
2022/12/14 12:37:59;;;;;;;21.63;13.45;;;2.20;1.00;;;;;;5041554;28;20301;-83
2022/12/14 12:40:30;;;;;;;20.05;15.90;;;2.60;1.00;;;;;;5017634;28;20235;-81
2022/12/14 12:43:09;;;;;;;31.88;18.90;;;2.70;1.00;;;;;;5034479;28;20230;-81
2022/12/14 12:46:09;;;;;;;;;;;;;;;;;;;;;
2022/12/14 12:49:08;;;;;;;21.65;15.50;;;2.20;1.00;;;;;;5025667;28;38822;-81
2022/12/14 12:51:52;;;;;;;20.83;15.50;;;1.20;1.00;;;;;;5032925;28;20234;-81
2022/12/14 12:55:01;;;;;;;;;;;;;;;;;;;;;
2022/12/14 13:00:53;;;;;;;26.88;16.05;;;-0.20;1.00;;;;;;5032071;28;20248;-81
2022/12/14 13:03:31;;;;;;;24.38;14.80;;;-0.30;1.00;;;;;;4992653;28;20238;-84
2022/12/14 13:06:20;;;;;;;20.80;14.95;;;0.20;1.00;;;;;;5002693;28;21164;-80
2022/12/14 13:09:01;;;;;;;24.23;16.30;;;1.90;1.00;;;;;;5014986;28;20253;-83
2022/12/14 13:11:32;;;;;;;22.77;15.50;;;1.90;1.00;;;;;;5040561;28;21070;-81
2022/12/14 13:14:19;;;;;;;25.23;18.48;;;1.30;1.00;;;;;;5030637;28;20244;-86
2022/12/14 13:16:48;;;;;;;21.92;15.73;;;0.50;1.00;;;;;;5025996;28;20243;-81
2022/12/14 13:21:59;;;;;;;20.65;14.63;;;-0.80;1.00;;;;;;5041312;28;20255;-90
2022/12/14 13:28:08;;;;;;;26.48;19.63;;;-1.30;1.00;;;;;;5047520;28;20247;-88
2022/12/14 13:31:19;;;;;;;309.67;176.23;;;-1.50;1.00;;;;;;5057153;28;20227;-87
2022/12/14 13:37:44;;;;;;;27.23;18.40;;;-1.80;1.00;;;;;;5026518;28;20363;-90
2022/12/14 13:40:50;;;;;;;32.90;20.15;;;-1.80;1.00;;;;;;5041203;28;20333;-88
2022/12/14 13:43:51;;;;;;;26.52;16.15;;;-1.90;1.00;;;;;;5041186;28;20228;-89
2022/12/14 13:46:29;;;;;;;26.67;16.38;;;-2.00;1.00;;;;;;5038489;28;20245;-91
2022/12/14 13:49:24;;;;;;;25.63;18.55;;;-2.10;1.00;;;;;;5035314;28;20353;-89
2022/12/14 13:51:52;;;;;;;25.90;16.00;;;-2.20;1.00;;;;;;5044159;28;21274;-90
2022/12/14 14:00:52;;;;;;;27.45;17.42;;;-2.40;1.00;;;;;;5032861;28;20267;-90
2022/12/14 14:03:43;;;;;;;27.08;16.88;;;-2.40;1.00;;;;;;5046399;28;20342;-89
2022/12/14 14:06:23;;;;;;;26.02;17.20;;;-2.50;1.00;;;;;;5033726;28;20258;-90
2022/12/14 14:12:02;;;;;;;30.20;19.10;;;-2.70;1.00;;;;;;5016739;28;20933;-88
2022/12/14 14:14:51;;;;;;;27.80;18.05;;;-2.80;1.00;;;;;;5017844;28;20251;-89
2022/12/14 14:20:59;;;;;;;28.25;18.33;;;-2.90;1.00;;;;;;5020590;28;21028;-90
2022/12/14 14:26:43;;;;;;;;;;;;;;;;;;;;;
2022/12/14 14:29:39;;;;;;;35.47;22.33;;;-3.00;1.00;;;;;;5064837;28;40353;-90
2022/12/14 14:32:41;;;;;;;29.10;18.98;;;-3.10;1.00;;;;;;5057283;28;20242;-88
2022/12/14 14:38:42;;;;;;;26.83;17.65;;;-3.10;1.00;;;;;;5063791;28;20252;-90
2022/12/14 14:41:33;;;;;;;27.08;16.85;;;-3.10;1.00;;;;;;5069240;28;20223;-88
2022/12/14 14:46:55;;;;;;;29.23;19.05;;;-3.20;1.00;;;;;;5056614;28;20290;-90
2022/12/14 14:53:31;;;;;;;35.17;19.10;;;-3.30;1.00;;;;;;5049402;28;20251;-89
2022/12/14 15:03:19;;;;;;;31.83;21.52;;;-3.40;1.00;;;;;;5066798;28;21149;-92
2022/12/14 15:06:11;;;;;;;32.22;20.50;;;-3.40;1.00;;;;;;5065826;28;20247;-92
2022/12/14 15:11:59;;;;;;;29.75;20.02;;;-3.40;1.00;;;;;;5054512;28;20293;-92